sensor_id;sensor_type;location;lat;lon;timestamp;P1;durP1;ratioP1;P2;durP2;ratioP2
72095;SDS011;59968;51.084;16.748;2022-12-07T00:01:44;3.90;;;1.90;;
72095;SDS011;59968;51.084;16.748;2022-12-07T00:04:14;2.70;;;1.30;;
72095;SDS011;59968;51.084;16.748;2022-12-07T00:06:44;5.10;;;2.10;;
72095;SDS011;59968;51.084;16.748;2022-12-07T00:09:15;5.20;;;2.10;;
72095;SDS011;59968;51.084;16.748;2022-12-07T00:11:44;4.00;;;1.90;;
72095;SDS011;59968;51.084;16.748;2022-12-07T00:14:17;4.90;;;2.30;;
72095;SDS011;59968;51.084;16.748;2022-12-07T00:16:48;4.50;;;1.90;;
72095;SDS011;59968;51.084;16.748;2022-12-07T00:19:19;4.10;;;2.30;;
72095;SDS011;59968;51.084;16.748;2022-12-07T00:21:47;4.90;;;2.30;;
72095;SDS011;59968;51.084;16.748;2022-12-07T00:24:16;7.10;;;2.90;;
72095;SDS011;59968;51.084;16.748;2022-12-07T00:26:44;3.90;;;2.00;;
72095;SDS011;59968;51.084;16.748;2022-12-07T00:29:17;3.30;;;1.60;;
72095;SDS011;59968;51.084;16.748;2022-12-07T00:31:48;2.30;;;1.10;;
72095;SDS011;59968;51.084;16.748;2022-12-07T00:34:20;3.40;;;1.90;;
72095;SDS011;59968;51.084;16.748;2022-12-07T00:36:49;3.20;;;1.50;;
72095;SDS011;59968;51.084;16.748;2022-12-07T00:39:18;2.90;;;1.60;;
72095;SDS011;59968;51.084;16.748;2022-12-07T00:41:47;2.90;;;1.60;;
72095;SDS011;59968;51.084;16.748;2022-12-07T00:44:15;2.70;;;1.50;;
72095;SDS011;59968;51.084;16.748;2022-12-07T00:46:43;3.20;;;1.50;;
72095;SDS011;59968;51.084;16.748;2022-12-07T00:49:13;3.10;;;1.50;;
72095;SDS011;59968;51.084;16.748;2022-12-07T00:51:42;2.90;;;1.50;;
72095;SDS011;59968;51.084;16.748;2022-12-07T00:54:10;2.00;;;0.90;;
72095;SDS011;59968;51.084;16.748;2022-12-07T00:56:39;3.50;;;1.20;;
72095;SDS011;59968;51.084;16.748;2022-12-07T00:59:10;2.80;;;1.40;;
72095;SDS011;59968;51.084;16.748;2022-12-07T01:01:41;2.20;;;1.00;;
72095;SDS011;59968;51.084;16.748;2022-12-07T01:04:09;2.10;;;1.10;;
72095;SDS011;59968;51.084;16.748;2022-12-07T01:06:38;2.70;;;1.10;;
72095;SDS011;59968;51.084;16.748;2022-12-07T01:09:06;3.70;;;0.80;;
72095;SDS011;59968;51.084;16.748;2022-12-07T01:11:35;2.80;;;1.10;;
72095;SDS011;59968;51.084;16.748;2022-12-07T01:14:03;1.70;;;0.80;;
72095;SDS011;59968;51.084;16.748;2022-12-07T01:16:32;2.80;;;1.00;;
72095;SDS011;59968;51.084;16.748;2022-12-07T01:19:01;2.80;;;0.90;;
72095;SDS011;59968;51.084;16.748;2022-12-07T01:21:33;2.00;;;0.60;;
72095;SDS011;59968;51.084;16.748;2022-12-07T01:24:05;3.10;;;0.90;;
72095;SDS011;59968;51.084;16.748;2022-12-07T01:26:37;1.00;;;0.70;;
72095;SDS011;59968;51.084;16.748;2022-12-07T01:29:06;2.00;;;1.00;;
72095;SDS011;59968;51.084;16.748;2022-12-07T01:31:34;2.00;;;0.90;;
72095;SDS011;59968;51.084;16.748;2022-12-07T01:34:03;0.80;;;0.50;;
72095;SDS011;59968;51.084;16.748;2022-12-07T01:36:32;2.50;;;1.00;;
72095;SDS011;59968;51.084;16.748;2022-12-07T01:39:04;1.10;;;0.90;;
72095;SDS011;59968;51.084;16.748;2022-12-07T01:41:36;1.90;;;0.80;;
72095;SDS011;59968;51.084;16.748;2022-12-07T01:44:15;2.00;;;0.90;;
72095;SDS011;59968;51.084;16.748;2022-12-07T01:47:02;1.70;;;0.70;;
72095;SDS011;59968;51.084;16.748;2022-12-07T01:49:41;1.40;;;0.70;;
72095;SDS011;59968;51.084;16.748;2022-12-07T01:52:15;1.30;;;0.90;;
72095;SDS011;59968;51.084;16.748;2022-12-07T01:54:47;0.90;;;0.50;;
72095;SDS011;59968;51.084;16.748;2022-12-07T01:57:19;1.40;;;0.80;;
72095;SDS011;59968;51.084;16.748;2022-12-07T01:59:49;2.30;;;0.80;;
72095;SDS011;59968;51.084;16.748;2022-12-07T02:02:27;2.00;;;0.70;;
72095;SDS011;59968;51.084;16.748;2022-12-07T02:05:03;1.60;;;0.90;;
72095;SDS011;59968;51.084;16.748;2022-12-07T02:07:34;1.50;;;0.60;;
72095;SDS011;59968;51.084;16.748;2022-12-07T02:10:25;0.90;;;0.70;;
72095;SDS011;59968;51.084;16.748;2022-12-07T02:21:20;0.80;;;0.50;;
72095;SDS011;59968;51.084;16.748;2022-12-07T02:24:12;1.40;;;0.60;;
72095;SDS011;59968;51.084;16.748;2022-12-07T02:32:16;1.40;;;0.90;;
72095;SDS011;59968;51.084;16.748;2022-12-07T02:34:59;1.70;;;0.80;;
72095;SDS011;59968;51.084;16.748;2022-12-07T02:45:45;2.50;;;0.60;;
72095;SDS011;59968;51.084;16.748;2022-12-07T02:48:16;2.00;;;0.60;;
72095;SDS011;59968;51.084;16.748;2022-12-07T02:50:50;1.70;;;0.60;;
72095;SDS011;59968;51.084;16.748;2022-12-07T02:55:59;1.80;;;1.00;;
72095;SDS011;59968;51.084;16.748;2022-12-07T03:04:17;1.50;;;0.90;;
72095;SDS011;59968;51.084;16.748;2022-12-07T03:06:51;1.50;;;0.70;;
72095;SDS011;59968;51.084;16.748;2022-12-07T03:18:20;2.30;;;1.00;;
72095;SDS011;59968;51.084;16.748;2022-12-07T03:20:52;1.60;;;0.70;;
72095;SDS011;59968;51.084;16.748;2022-12-07T03:23:23;0.80;;;0.70;;
72095;SDS011;59968;51.084;16.748;2022-12-07T03:25:55;1.20;;;0.80;;
72095;SDS011;59968;51.084;16.748;2022-12-07T03:28:30;2.00;;;0.90;;
72095;SDS011;59968;51.084;16.748;2022-12-07T03:31:05;1.70;;;0.90;;
72095;SDS011;59968;51.084;16.748;2022-12-07T03:33:57;1.40;;;0.90;;
72095;SDS011;59968;51.084;16.748;2022-12-07T03:39:29;1.30;;;0.80;;
72095;SDS011;59968;51.084;16.748;2022-12-07T03:42:01;1.10;;;0.80;;
72095;SDS011;59968;51.084;16.748;2022-12-07T03:44:33;1.80;;;1.10;;
72095;SDS011;59968;51.084;16.748;2022-12-07T03:49:53;2.20;;;1.50;;
72095;SDS011;59968;51.084;16.748;2022-12-07T03:55:35;1.60;;;0.80;;
72095;SDS011;59968;51.084;16.748;2022-12-07T03:58:07;2.50;;;1.20;;
72095;SDS011;59968;51.084;16.748;2022-12-07T04:00:40;2.00;;;1.20;;
72095;SDS011;59968;51.084;16.748;2022-12-07T04:03:10;1.80;;;1.20;;
72095;SDS011;59968;51.084;16.748;2022-12-07T04:05:39;1.80;;;1.10;;
72095;SDS011;59968;51.084;16.748;2022-12-07T04:08:08;2.00;;;1.10;;
72095;SDS011;59968;51.084;16.748;2022-12-07T04:10:38;1.50;;;1.00;;
72095;SDS011;59968;51.084;16.748;2022-12-07T04:13:06;1.60;;;0.90;;
72095;SDS011;59968;51.084;16.748;2022-12-07T04:15:34;1.30;;;0.60;;
72095;SDS011;59968;51.084;16.748;2022-12-07T04:18:03;1.40;;;0.90;;
72095;SDS011;59968;51.084;16.748;2022-12-07T04:20:32;1.80;;;1.10;;
72095;SDS011;59968;51.084;16.748;2022-12-07T04:23:01;2.00;;;1.00;;
72095;SDS011;59968;51.084;16.748;2022-12-07T04:25:30;1.00;;;0.60;;
72095;SDS011;59968;51.084;16.748;2022-12-07T04:27:58;1.20;;;0.60;;
72095;SDS011;59968;51.084;16.748;2022-12-07T04:30:27;2.00;;;1.10;;
72095;SDS011;59968;51.084;16.748;2022-12-07T04:32:56;1.30;;;0.60;;
72095;SDS011;59968;51.084;16.748;2022-12-07T04:35:25;1.80;;;1.00;;
72095;SDS011;59968;51.084;16.748;2022-12-07T04:37:53;2.70;;;1.50;;
72095;SDS011;59968;51.084;16.748;2022-12-07T04:40:21;2.10;;;1.10;;
72095;SDS011;59968;51.084;16.748;2022-12-07T04:42:49;2.30;;;1.30;;
72095;SDS011;59968;51.084;16.748;2022-12-07T04:45:18;3.40;;;1.40;;
72095;SDS011;59968;51.084;16.748;2022-12-07T04:47:46;2.50;;;1.30;;
72095;SDS011;59968;51.084;16.748;2022-12-07T04:50:15;2.70;;;1.40;;
72095;SDS011;59968;51.084;16.748;2022-12-07T04:52:43;3.00;;;1.40;;
72095;SDS011;59968;51.084;16.748;2022-12-07T04:55:12;3.30;;;1.40;;
72095;SDS011;59968;51.084;16.748;2022-12-07T04:57:40;2.60;;;1.00;;
72095;SDS011;59968;51.084;16.748;2022-12-07T05:00:08;2.10;;;1.10;;
72095;SDS011;59968;51.084;16.748;2022-12-07T05:02:37;4.00;;;1.60;;
72095;SDS011;59968;51.084;16.748;2022-12-07T05:05:06;4.30;;;1.90;;
72095;SDS011;59968;51.084;16.748;2022-12-07T05:07:35;4.30;;;1.80;;
72095;SDS011;59968;51.084;16.748;2022-12-07T05:10:04;4.40;;;2.40;;
72095;SDS011;59968;51.084;16.748;2022-12-07T05:12:34;4.20;;;1.80;;
72095;SDS011;59968;51.084;16.748;2022-12-07T05:15:02;7.40;;;2.60;;
72095;SDS011;59968;51.084;16.748;2022-12-07T05:17:32;9.10;;;2.90;;
72095;SDS011;59968;51.084;16.748;2022-12-07T05:20:01;9.00;;;3.50;;
72095;SDS011;59968;51.084;16.748;2022-12-07T05:22:31;6.60;;;2.60;;
72095;SDS011;59968;51.084;16.748;2022-12-07T05:25:01;7.30;;;2.60;;
72095;SDS011;59968;51.084;16.748;2022-12-07T05:27:34;6.50;;;2.90;;
72095;SDS011;59968;51.084;16.748;2022-12-07T05:30:03;6.60;;;2.90;;
72095;SDS011;59968;51.084;16.748;2022-12-07T05:32:33;9.10;;;3.60;;
72095;SDS011;59968;51.084;16.748;2022-12-07T05:35:01;6.90;;;2.60;;
72095;SDS011;59968;51.084;16.748;2022-12-07T05:37:30;8.10;;;3.30;;
72095;SDS011;59968;51.084;16.748;2022-12-07T05:39:59;5.90;;;2.40;;
72095;SDS011;59968;51.084;16.748;2022-12-07T05:42:27;8.90;;;3.20;;
72095;SDS011;59968;51.084;16.748;2022-12-07T05:44:56;10.10;;;4.80;;
72095;SDS011;59968;51.084;16.748;2022-12-07T05:47:24;10.90;;;4.00;;
72095;SDS011;59968;51.084;16.748;2022-12-07T05:49:52;10.00;;;4.40;;
72095;SDS011;59968;51.084;16.748;2022-12-07T05:52:21;8.50;;;3.40;;
72095;SDS011;59968;51.084;16.748;2022-12-07T05:54:49;11.00;;;4.50;;
72095;SDS011;59968;51.084;16.748;2022-12-07T05:57:18;11.40;;;4.30;;
72095;SDS011;59968;51.084;16.748;2022-12-07T05:59:47;9.90;;;4.10;;
72095;SDS011;59968;51.084;16.748;2022-12-07T06:02:16;12.20;;;4.50;;
72095;SDS011;59968;51.084;16.748;2022-12-07T06:04:46;9.30;;;3.50;;
72095;SDS011;59968;51.084;16.748;2022-12-07T06:07:16;10.40;;;4.00;;
72095;SDS011;59968;51.084;16.748;2022-12-07T06:09:45;8.50;;;3.40;;
72095;SDS011;59968;51.084;16.748;2022-12-07T06:12:14;11.60;;;4.50;;
72095;SDS011;59968;51.084;16.748;2022-12-07T06:15:01;8.40;;;3.20;;
72095;SDS011;59968;51.084;16.748;2022-12-07T06:17:31;9.80;;;3.80;;
72095;SDS011;59968;51.084;16.748;2022-12-07T06:20:02;8.50;;;3.50;;
72095;SDS011;59968;51.084;16.748;2022-12-07T06:22:31;9.80;;;3.30;;
72095;SDS011;59968;51.084;16.748;2022-12-07T06:25:00;9.50;;;4.30;;
72095;SDS011;59968;51.084;16.748;2022-12-07T06:27:35;8.80;;;3.50;;
72095;SDS011;59968;51.084;16.748;2022-12-07T06:30:04;7.50;;;3.20;;
72095;SDS011;59968;51.084;16.748;2022-12-07T06:32:35;10.20;;;3.70;;
72095;SDS011;59968;51.084;16.748;2022-12-07T06:35:06;8.90;;;3.70;;
72095;SDS011;59968;51.084;16.748;2022-12-07T06:37:35;8.70;;;3.10;;
72095;SDS011;59968;51.084;16.748;2022-12-07T06:40:03;9.30;;;3.50;;
72095;SDS011;59968;51.084;16.748;2022-12-07T06:42:33;9.80;;;3.60;;
72095;SDS011;59968;51.084;16.748;2022-12-07T06:45:02;10.80;;;4.20;;
72095;SDS011;59968;51.084;16.748;2022-12-07T06:47:31;8.80;;;3.60;;
72095;SDS011;59968;51.084;16.748;2022-12-07T06:50:09;9.40;;;3.70;;
72095;SDS011;59968;51.084;16.748;2022-12-07T06:52:38;9.40;;;3.50;;
72095;SDS011;59968;51.084;16.748;2022-12-07T06:55:07;9.00;;;3.20;;
72095;SDS011;59968;51.084;16.748;2022-12-07T06:57:36;9.90;;;4.30;;
72095;SDS011;59968;51.084;16.748;2022-12-07T07:00:06;11.80;;;4.80;;
72095;SDS011;59968;51.084;16.748;2022-12-07T07:02:35;7.20;;;2.90;;
72095;SDS011;59968;51.084;16.748;2022-12-07T07:05:04;9.30;;;3.50;;
72095;SDS011;59968;51.084;16.748;2022-12-07T07:07:33;7.60;;;3.00;;
72095;SDS011;59968;51.084;16.748;2022-12-07T07:10:22;11.90;;;4.70;;
72095;SDS011;59968;51.084;16.748;2022-12-07T07:12:50;10.20;;;3.90;;
72095;SDS011;59968;51.084;16.748;2022-12-07T07:15:24;10.20;;;3.60;;
72095;SDS011;59968;51.084;16.748;2022-12-07T07:17:53;8.00;;;3.30;;
72095;SDS011;59968;51.084;16.748;2022-12-07T07:20:22;9.30;;;3.20;;
72095;SDS011;59968;51.084;16.748;2022-12-07T07:22:56;9.80;;;4.00;;
72095;SDS011;59968;51.084;16.748;2022-12-07T07:26:11;9.80;;;3.80;;
72095;SDS011;59968;51.084;16.748;2022-12-07T07:28:47;11.00;;;4.50;;
72095;SDS011;59968;51.084;16.748;2022-12-07T07:35:42;12.30;;;4.30;;
72095;SDS011;59968;51.084;16.748;2022-12-07T07:45:55;10.20;;;4.70;;
72095;SDS011;59968;51.084;16.748;2022-12-07T07:49:50;11.10;;;4.30;;
72095;SDS011;59968;51.084;16.748;2022-12-07T07:52:26;10.20;;;4.40;;
72095;SDS011;59968;51.084;16.748;2022-12-07T07:59:07;9.10;;;3.70;;
72095;SDS011;59968;51.084;16.748;2022-12-07T08:02:39;11.40;;;4.80;;
72095;SDS011;59968;51.084;16.748;2022-12-07T08:05:12;13.00;;;4.90;;
72095;SDS011;59968;51.084;16.748;2022-12-07T08:07:42;13.00;;;4.80;;
72095;SDS011;59968;51.084;16.748;2022-12-07T08:10:13;13.40;;;5.00;;
72095;SDS011;59968;51.084;16.748;2022-12-07T08:12:42;13.50;;;5.40;;
72095;SDS011;59968;51.084;16.748;2022-12-07T08:15:30;13.70;;;5.60;;
72095;SDS011;59968;51.084;16.748;2022-12-07T08:18:00;11.20;;;4.50;;
72095;SDS011;59968;51.084;16.748;2022-12-07T08:20:32;14.20;;;5.50;;
72095;SDS011;59968;51.084;16.748;2022-12-07T08:23:02;11.90;;;5.00;;
72095;SDS011;59968;51.084;16.748;2022-12-07T08:25:31;12.00;;;4.80;;
72095;SDS011;59968;51.084;16.748;2022-12-07T08:28:00;12.00;;;5.10;;
72095;SDS011;59968;51.084;16.748;2022-12-07T08:30:29;12.70;;;4.90;;
72095;SDS011;59968;51.084;16.748;2022-12-07T08:32:58;12.90;;;5.10;;
72095;SDS011;59968;51.084;16.748;2022-12-07T08:35:27;11.30;;;5.00;;
72095;SDS011;59968;51.084;16.748;2022-12-07T08:37:55;10.80;;;5.10;;
72095;SDS011;59968;51.084;16.748;2022-12-07T08:40:25;12.20;;;5.20;;
72095;SDS011;59968;51.084;16.748;2022-12-07T08:42:54;11.00;;;4.60;;
72095;SDS011;59968;51.084;16.748;2022-12-07T08:45:23;11.60;;;5.10;;
72095;SDS011;59968;51.084;16.748;2022-12-07T08:47:55;9.70;;;4.80;;
72095;SDS011;59968;51.084;16.748;2022-12-07T08:50:31;10.20;;;4.40;;
72095;SDS011;59968;51.084;16.748;2022-12-07T08:53:03;9.60;;;4.60;;
72095;SDS011;59968;51.084;16.748;2022-12-07T08:55:34;9.80;;;4.30;;
72095;SDS011;59968;51.084;16.748;2022-12-07T08:58:03;8.60;;;4.10;;
72095;SDS011;59968;51.084;16.748;2022-12-07T09:00:33;8.40;;;4.30;;
72095;SDS011;59968;51.084;16.748;2022-12-07T09:03:01;7.80;;;3.80;;
72095;SDS011;59968;51.084;16.748;2022-12-07T09:05:31;8.60;;;4.00;;
72095;SDS011;59968;51.084;16.748;2022-12-07T09:08:01;7.60;;;3.30;;
72095;SDS011;59968;51.084;16.748;2022-12-07T09:10:30;7.90;;;3.50;;
72095;SDS011;59968;51.084;16.748;2022-12-07T09:12:59;7.80;;;3.80;;
72095;SDS011;59968;51.084;16.748;2022-12-07T09:15:30;7.90;;;3.70;;
72095;SDS011;59968;51.084;16.748;2022-12-07T09:17:59;7.90;;;3.70;;
72095;SDS011;59968;51.084;16.748;2022-12-07T09:20:28;9.20;;;3.20;;
72095;SDS011;59968;51.084;16.748;2022-12-07T09:22:58;7.40;;;3.60;;
72095;SDS011;59968;51.084;16.748;2022-12-07T09:25:28;9.30;;;3.90;;
72095;SDS011;59968;51.084;16.748;2022-12-07T09:27:57;8.80;;;4.10;;
72095;SDS011;59968;51.084;16.748;2022-12-07T09:30:26;7.30;;;3.40;;
72095;SDS011;59968;51.084;16.748;2022-12-07T09:32:59;8.00;;;3.40;;
72095;SDS011;59968;51.084;16.748;2022-12-07T09:35:27;8.00;;;3.80;;
72095;SDS011;59968;51.084;16.748;2022-12-07T09:37:56;9.90;;;3.70;;
72095;SDS011;59968;51.084;16.748;2022-12-07T09:40:24;7.40;;;3.20;;
72095;SDS011;59968;51.084;16.748;2022-12-07T09:42:54;9.10;;;3.20;;
72095;SDS011;59968;51.084;16.748;2022-12-07T09:45:31;6.90;;;3.20;;
72095;SDS011;59968;51.084;16.748;2022-12-07T09:48:04;9.40;;;3.30;;
72095;SDS011;59968;51.084;16.748;2022-12-07T09:50:34;7.80;;;3.20;;
72095;SDS011;59968;51.084;16.748;2022-12-07T09:53:07;8.10;;;3.40;;
72095;SDS011;59968;51.084;16.748;2022-12-07T09:55:38;5.90;;;2.70;;
72095;SDS011;59968;51.084;16.748;2022-12-07T09:58:12;6.40;;;3.00;;
72095;SDS011;59968;51.084;16.748;2022-12-07T10:00:57;8.60;;;3.80;;
72095;SDS011;59968;51.084;16.748;2022-12-07T10:03:29;6.40;;;2.70;;
72095;SDS011;59968;51.084;16.748;2022-12-07T10:05:58;7.00;;;3.20;;
72095;SDS011;59968;51.084;16.748;2022-12-07T10:08:27;4.40;;;2.20;;
72095;SDS011;59968;51.084;16.748;2022-12-07T10:10:57;6.90;;;3.10;;
72095;SDS011;59968;51.084;16.748;2022-12-07T10:13:39;6.50;;;2.70;;
72095;SDS011;59968;51.084;16.748;2022-12-07T10:16:35;7.50;;;3.50;;
72095;SDS011;59968;51.084;16.748;2022-12-07T10:24:32;8.90;;;3.90;;
72095;SDS011;59968;51.084;16.748;2022-12-07T10:27:03;5.50;;;2.80;;
72095;SDS011;59968;51.084;16.748;2022-12-07T10:29:33;7.80;;;3.30;;
72095;SDS011;59968;51.084;16.748;2022-12-07T10:32:28;5.30;;;2.90;;
72095;SDS011;59968;51.084;16.748;2022-12-07T10:38:07;7.30;;;4.30;;
72095;SDS011;59968;51.084;16.748;2022-12-07T10:40:45;8.20;;;3.40;;
72095;SDS011;59968;51.084;16.748;2022-12-07T10:51:42;7.00;;;3.20;;
72095;SDS011;59968;51.084;16.748;2022-12-07T11:42:00;7.20;;;3.60;;
72095;SDS011;59968;51.084;16.748;2022-12-07T11:44:39;8.00;;;3.20;;
72095;SDS011;59968;51.084;16.748;2022-12-07T11:47:32;6.00;;;2.60;;
72095;SDS011;59968;51.084;16.748;2022-12-07T11:50:22;6.20;;;3.40;;
72095;SDS011;59968;51.084;16.748;2022-12-07T11:53:01;5.20;;;3.20;;
72095;SDS011;59968;51.084;16.748;2022-12-07T12:04:15;5.80;;;2.70;;
72095;SDS011;59968;51.084;16.748;2022-12-07T12:06:53;3.80;;;2.10;;
72095;SDS011;59968;51.084;16.748;2022-12-07T12:09:31;5.60;;;3.00;;
72095;SDS011;59968;51.084;16.748;2022-12-07T12:20:55;11.60;;;6.30;;
72095;SDS011;59968;51.084;16.748;2022-12-07T12:26:48;5.80;;;2.90;;
72095;SDS011;59968;51.084;16.748;2022-12-07T12:29:24;6.80;;;3.50;;
72095;SDS011;59968;51.084;16.748;2022-12-07T12:32:04;8.50;;;3.80;;
72095;SDS011;59968;51.084;16.748;2022-12-07T12:42:55;5.90;;;3.00;;
72095;SDS011;59968;51.084;16.748;2022-12-07T12:45:28;7.00;;;4.50;;
72095;SDS011;59968;51.084;16.748;2022-12-07T12:48:03;7.60;;;4.20;;
72095;SDS011;59968;51.084;16.748;2022-12-07T12:50:36;9.80;;;4.70;;
72095;SDS011;59968;51.084;16.748;2022-12-07T13:01:31;5.20;;;2.70;;
72095;SDS011;59968;51.084;16.748;2022-12-07T13:03:56;3.20;;;1.90;;
72095;SDS011;59968;51.084;16.748;2022-12-07T13:08:56;3.90;;;2.30;;
72095;SDS011;59968;51.084;16.748;2022-12-07T13:11:29;4.50;;;2.60;;
72095;SDS011;59968;51.084;16.748;2022-12-07T13:20:02;3.90;;;2.40;;
72095;SDS011;59968;51.084;16.748;2022-12-07T13:27:59;26.50;;;13.80;;
72095;SDS011;59968;51.084;16.748;2022-12-07T13:30:31;9.30;;;5.20;;
72095;SDS011;59968;51.084;16.748;2022-12-07T13:33:03;8.30;;;4.40;;
72095;SDS011;59968;51.084;16.748;2022-12-07T13:38:17;8.50;;;4.60;;
72095;SDS011;59968;51.084;16.748;2022-12-07T13:41:01;11.80;;;6.20;;
72095;SDS011;59968;51.084;16.748;2022-12-07T13:46:17;6.80;;;2.90;;
72095;SDS011;59968;51.084;16.748;2022-12-07T13:49:24;8.70;;;3.40;;
72095;SDS011;59968;51.084;16.748;2022-12-07T13:52:07;5.60;;;2.80;;
72095;SDS011;59968;51.084;16.748;2022-12-07T13:57:36;53.00;;;18.40;;
72095;SDS011;59968;51.084;16.748;2022-12-07T14:00:16;57.50;;;21.20;;
72095;SDS011;59968;51.084;16.748;2022-12-07T14:02:59;30.70;;;12.10;;
72095;SDS011;59968;51.084;16.748;2022-12-07T14:05:32;11.70;;;4.80;;
72095;SDS011;59968;51.084;16.748;2022-12-07T14:08:04;16.70;;;7.90;;
72095;SDS011;59968;51.084;16.748;2022-12-07T14:10:54;16.30;;;7.10;;
72095;SDS011;59968;51.084;16.748;2022-12-07T14:19:03;18.10;;;9.20;;
72095;SDS011;59968;51.084;16.748;2022-12-07T14:21:34;9.50;;;5.00;;
72095;SDS011;59968;51.084;16.748;2022-12-07T14:24:14;7.30;;;3.80;;
72095;SDS011;59968;51.084;16.748;2022-12-07T14:26:46;9.30;;;4.20;;
72095;SDS011;59968;51.084;16.748;2022-12-07T14:31:59;9.20;;;4.90;;
72095;SDS011;59968;51.084;16.748;2022-12-07T14:34:58;10.00;;;4.80;;
72095;SDS011;59968;51.084;16.748;2022-12-07T14:37:29;9.50;;;5.00;;
72095;SDS011;59968;51.084;16.748;2022-12-07T14:39:58;7.70;;;4.60;;
72095;SDS011;59968;51.084;16.748;2022-12-07T14:42:28;9.30;;;5.30;;
72095;SDS011;59968;51.084;16.748;2022-12-07T14:44:58;9.80;;;5.40;;
72095;SDS011;59968;51.084;16.748;2022-12-07T14:47:28;7.00;;;4.30;;
72095;SDS011;59968;51.084;16.748;2022-12-07T14:50:17;7.00;;;4.00;;
72095;SDS011;59968;51.084;16.748;2022-12-07T14:52:49;6.40;;;4.10;;
72095;SDS011;59968;51.084;16.748;2022-12-07T14:55:48;6.50;;;3.00;;
72095;SDS011;59968;51.084;16.748;2022-12-07T14:58:17;11.10;;;6.90;;
72095;SDS011;59968;51.084;16.748;2022-12-07T15:00:45;7.70;;;3.80;;
72095;SDS011;59968;51.084;16.748;2022-12-07T15:03:15;9.90;;;3.50;;
72095;SDS011;59968;51.084;16.748;2022-12-07T15:05:46;10.90;;;6.10;;
72095;SDS011;59968;51.084;16.748;2022-12-07T15:08:15;13.00;;;8.80;;
72095;SDS011;59968;51.084;16.748;2022-12-07T15:10:45;9.60;;;4.90;;
72095;SDS011;59968;51.084;16.748;2022-12-07T15:13:13;7.10;;;4.30;;
72095;SDS011;59968;51.084;16.748;2022-12-07T15:16:13;4.30;;;2.50;;
72095;SDS011;59968;51.084;16.748;2022-12-07T15:22:11;10.00;;;4.10;;
72095;SDS011;59968;51.084;16.748;2022-12-07T15:24:40;8.70;;;4.10;;
72095;SDS011;59968;51.084;16.748;2022-12-07T15:27:09;6.90;;;2.80;;
72095;SDS011;59968;51.084;16.748;2022-12-07T15:29:37;5.40;;;3.00;;
72095;SDS011;59968;51.084;16.748;2022-12-07T15:32:06;7.60;;;3.50;;
72095;SDS011;59968;51.084;16.748;2022-12-07T15:34:34;8.50;;;3.50;;
72095;SDS011;59968;51.084;16.748;2022-12-07T15:37:07;6.60;;;3.40;;
72095;SDS011;59968;51.084;16.748;2022-12-07T15:39:36;6.40;;;3.70;;
72095;SDS011;59968;51.084;16.748;2022-12-07T15:42:05;8.30;;;3.40;;
72095;SDS011;59968;51.084;16.748;2022-12-07T15:44:33;7.00;;;3.20;;
72095;SDS011;59968;51.084;16.748;2022-12-07T15:47:23;8.60;;;3.80;;
72095;SDS011;59968;51.084;16.748;2022-12-07T15:49:52;10.40;;;4.80;;
72095;SDS011;59968;51.084;16.748;2022-12-07T15:52:22;10.30;;;4.50;;
72095;SDS011;59968;51.084;16.748;2022-12-07T15:54:51;9.40;;;4.40;;
72095;SDS011;59968;51.084;16.748;2022-12-07T15:57:20;8.20;;;3.80;;
72095;SDS011;59968;51.084;16.748;2022-12-07T15:59:53;9.60;;;4.00;;
72095;SDS011;59968;51.084;16.748;2022-12-07T16:02:22;9.50;;;4.00;;
72095;SDS011;59968;51.084;16.748;2022-12-07T16:04:55;9.80;;;3.50;;
72095;SDS011;59968;51.084;16.748;2022-12-07T16:07:25;5.60;;;3.10;;
72095;SDS011;59968;51.084;16.748;2022-12-07T16:09:56;5.60;;;2.70;;
72095;SDS011;59968;51.084;16.748;2022-12-07T16:12:27;8.10;;;3.00;;
72095;SDS011;59968;51.084;16.748;2022-12-07T16:14:56;5.30;;;2.50;;
72095;SDS011;59968;51.084;16.748;2022-12-07T16:17:28;7.30;;;3.20;;
72095;SDS011;59968;51.084;16.748;2022-12-07T16:19:58;9.70;;;3.50;;
72095;SDS011;59968;51.084;16.748;2022-12-07T16:22:29;7.50;;;3.20;;
72095;SDS011;59968;51.084;16.748;2022-12-07T16:25:00;7.90;;;3.40;;
72095;SDS011;59968;51.084;16.748;2022-12-07T16:27:31;5.00;;;2.10;;
72095;SDS011;59968;51.084;16.748;2022-12-07T16:30:01;6.80;;;3.00;;
72095;SDS011;59968;51.084;16.748;2022-12-07T16:32:32;5.80;;;2.60;;
72095;SDS011;59968;51.084;16.748;2022-12-07T16:35:03;8.20;;;3.10;;
72095;SDS011;59968;51.084;16.748;2022-12-07T16:37:32;7.30;;;2.70;;
72095;SDS011;59968;51.084;16.748;2022-12-07T16:40:03;6.60;;;3.20;;
72095;SDS011;59968;51.084;16.748;2022-12-07T16:42:33;7.80;;;3.30;;
72095;SDS011;59968;51.084;16.748;2022-12-07T16:45:03;6.70;;;2.90;;
72095;SDS011;59968;51.084;16.748;2022-12-07T16:47:34;6.10;;;2.80;;
72095;SDS011;59968;51.084;16.748;2022-12-07T16:50:06;5.30;;;2.70;;
72095;SDS011;59968;51.084;16.748;2022-12-07T16:52:36;7.00;;;2.90;;
72095;SDS011;59968;51.084;16.748;2022-12-07T16:55:06;7.70;;;3.60;;
72095;SDS011;59968;51.084;16.748;2022-12-07T16:57:35;9.70;;;4.70;;
72095;SDS011;59968;51.084;16.748;2022-12-07T17:00:04;11.90;;;4.30;;
72095;SDS011;59968;51.084;16.748;2022-12-07T17:02:34;12.30;;;4.80;;
72095;SDS011;59968;51.084;16.748;2022-12-07T17:05:04;7.50;;;3.00;;
72095;SDS011;59968;51.084;16.748;2022-12-07T17:07:33;11.90;;;4.90;;
72095;SDS011;59968;51.084;16.748;2022-12-07T17:10:03;9.00;;;4.10;;
72095;SDS011;59968;51.084;16.748;2022-12-07T17:12:34;12.30;;;4.10;;
72095;SDS011;59968;51.084;16.748;2022-12-07T17:15:04;8.90;;;3.60;;
72095;SDS011;59968;51.084;16.748;2022-12-07T17:17:58;10.80;;;3.40;;
72095;SDS011;59968;51.084;16.748;2022-12-07T17:20:27;6.90;;;2.80;;
72095;SDS011;59968;51.084;16.748;2022-12-07T17:22:57;10.00;;;3.80;;
72095;SDS011;59968;51.084;16.748;2022-12-07T17:25:27;8.10;;;3.10;;
72095;SDS011;59968;51.084;16.748;2022-12-07T17:27:56;9.80;;;3.10;;
72095;SDS011;59968;51.084;16.748;2022-12-07T17:30:25;11.10;;;2.80;;
72095;SDS011;59968;51.084;16.748;2022-12-07T17:32:55;8.90;;;3.60;;
72095;SDS011;59968;51.084;16.748;2022-12-07T17:35:26;9.80;;;3.10;;
72095;SDS011;59968;51.084;16.748;2022-12-07T17:37:55;7.80;;;3.00;;
72095;SDS011;59968;51.084;16.748;2022-12-07T17:40:24;8.90;;;3.10;;
72095;SDS011;59968;51.084;16.748;2022-12-07T17:42:54;8.50;;;3.00;;
72095;SDS011;59968;51.084;16.748;2022-12-07T17:45:23;10.00;;;3.80;;
72095;SDS011;59968;51.084;16.748;2022-12-07T17:47:52;9.00;;;3.30;;
72095;SDS011;59968;51.084;16.748;2022-12-07T17:50:22;7.00;;;3.00;;
72095;SDS011;59968;51.084;16.748;2022-12-07T17:53:12;8.20;;;2.60;;
72095;SDS011;59968;51.084;16.748;2022-12-07T17:55:42;7.50;;;2.60;;
72095;SDS011;59968;51.084;16.748;2022-12-07T17:58:43;7.60;;;2.90;;
72095;SDS011;59968;51.084;16.748;2022-12-07T18:01:12;9.30;;;3.20;;
72095;SDS011;59968;51.084;16.748;2022-12-07T18:03:41;9.10;;;3.10;;
72095;SDS011;59968;51.084;16.748;2022-12-07T18:06:10;8.80;;;3.30;;
72095;SDS011;59968;51.084;16.748;2022-12-07T18:08:39;9.50;;;3.10;;
72095;SDS011;59968;51.084;16.748;2022-12-07T18:11:09;8.90;;;3.20;;
72095;SDS011;59968;51.084;16.748;2022-12-07T18:13:38;6.40;;;2.40;;
72095;SDS011;59968;51.084;16.748;2022-12-07T18:16:14;10.90;;;2.80;;
72095;SDS011;59968;51.084;16.748;2022-12-07T18:18:46;6.70;;;2.60;;
72095;SDS011;59968;51.084;16.748;2022-12-07T18:21:22;7.90;;;2.90;;
72095;SDS011;59968;51.084;16.748;2022-12-07T18:23:54;7.00;;;3.50;;